createdAt,value
2019-01-14T00:00:58.964Z,99849.73
2019-01-14T00:02:06.313Z,99844.07
2019-01-14T00:03:13.387Z,99851.45
2019-01-14T00:04:21.800Z,99856.20
2019-01-14T00:05:30.496Z,99861.33
2019-01-14T00:06:37.677Z,99854.98
2019-01-14T00:07:44.463Z,99857.57
2019-01-14T00:08:51.608Z,99860.94
2019-01-14T00:09:58.319Z,99859.80
2019-01-14T00:11:05.193Z,99862.28
2019-01-14T00:12:12.016Z,99866.86
2019-01-14T00:13:18.992Z,99866.86
2019-01-14T00:14:25.794Z,99865.72
2019-01-14T00:15:32.452Z,99869.44
2019-01-14T00:16:39.367Z,99869.41
2019-01-14T00:17:46.421Z,99873.99
2019-01-14T00:18:53.243Z,99872.24
2019-01-14T00:19:59.978Z,99878.22
2019-01-14T00:21:06.638Z,99877.88
2019-01-14T00:22:13.285Z,99879.66
2019-01-14T00:23:19.983Z,99876.95
2019-01-14T00:24:27.121Z,99881.53
2019-01-14T00:25:33.880Z,99882.17
2019-01-14T00:26:41.202Z,99882.20
2019-01-14T00:27:48.175Z,99880.45
2019-01-14T00:28:54.984Z,99887.14
2019-01-14T00:30:02.029Z,99886.02
2019-01-14T00:31:08.712Z,99896.30
2019-01-14T00:32:15.614Z,99896.23
2019-01-14T00:33:23.539Z,99901.77
2019-01-14T00:34:30.963Z,99898.41
2019-01-14T00:35:37.688Z,99897.45
2019-01-14T00:36:44.501Z,99899.90
2019-01-14T00:37:51.543Z,99894.04
2019-01-14T00:38:59.039Z,99890.77
2019-01-14T00:40:08.373Z,99899.67
2019-01-14T00:41:15.027Z,99906.58
2019-01-14T00:42:22.162Z,99904.88
2019-01-14T00:43:28.937Z,99913.95
2019-01-14T00:44:35.770Z,99911.02
2019-01-14T00:45:42.549Z,99910.13
2019-01-14T00:46:49.221Z,99912.97
2019-01-14T00:47:55.894Z,99919.36
2019-01-14T00:49:02.840Z,99915.52
2019-01-14T00:50:11.781Z,99916.81
2019-01-14T00:51:18.538Z,99913.29
2019-01-14T00:52:25.221Z,99922.26
2019-01-14T00:53:31.948Z,99920.16
2019-01-14T00:54:38.667Z,99923.00
2019-01-14T00:55:45.992Z,99924.59
2019-01-14T00:56:52.641Z,99932.65
2019-01-14T00:57:59.292Z,99934.84
2019-01-14T00:59:06.022Z,99938.28
2019-01-14T01:00:25.004Z,99947.63
2019-01-14T01:01:31.771Z,99948.42
2019-01-14T01:02:38.491Z,99952.19
2019-01-14T01:03:45.238Z,99958.23
2019-01-14T01:04:51.896Z,99960.89
2019-01-14T01:05:58.550Z,99951.51
2019-01-14T01:07:05.243Z,99958.91
2019-01-14T01:08:11.901Z,99959.38
2019-01-14T01:09:18.655Z,99961.54
2019-01-14T01:10:25.580Z,99965.41
2019-01-14T01:11:32.241Z,99963.42
2019-01-14T01:12:38.974Z,99969.40
2019-01-14T01:13:46.061Z,99972.44
2019-01-14T01:14:52.769Z,99975.04
2019-01-14T01:16:00.007Z,99974.98
2019-01-14T01:17:06.955Z,99974.52
2019-01-14T01:18:13.691Z,99975.77
2019-01-14T01:19:20.706Z,99978.36
2019-01-14T01:20:28.664Z,99974.21
2019-01-14T01:21:35.320Z,99986.88
2019-01-14T01:22:42.319Z,99988.52
2019-01-14T01:23:49.637Z,99989.81
2019-01-14T01:24:56.301Z,99994.09
2019-01-14T01:26:03.069Z,99997.84
2019-01-14T01:27:09.764Z,100000.48
2019-01-14T01:28:16.986Z,100003.00
2019-01-14T01:29:23.758Z,100003.31
2019-01-14T01:30:30.383Z,100008.05
2019-01-14T01:31:37.685Z,100010.17
2019-01-14T01:32:44.910Z,100014.48
2019-01-14T01:33:51.669Z,100018.30
2019-01-14T01:34:58.345Z,100023.23
2019-01-14T01:36:05.449Z,100021.16
2019-01-14T01:37:12.193Z,100017.86
2019-01-14T01:38:18.863Z,100027.23
2019-01-14T01:39:25.720Z,100029.41
2019-01-14T01:40:32.771Z,100027.23
2019-01-14T01:41:39.460Z,100031.47
2019-01-14T01:42:46.524Z,100025.49
2019-01-14T01:43:53.273Z,100031.98
2019-01-14T01:45:00.532Z,100031.62
2019-01-14T01:46:07.234Z,100041.36
2019-01-14T01:47:13.993Z,100038.42
2019-01-14T01:48:21.012Z,100045.36
2019-01-14T01:49:27.680Z,100049.58
2019-01-14T01:50:35.338Z,100053.05
2019-01-14T01:51:42.028Z,100060.33
2019-01-14T01:52:48.979Z,100061.18
2019-01-14T01:53:55.925Z,100065.92
2019-01-14T01:55:03.033Z,100064.99
2019-01-14T01:56:09.991Z,100067.34
2019-01-14T01:57:16.697Z,100070.27
2019-01-14T01:58:23.625Z,100069.80
2019-01-14T01:59:31.138Z,100068.91
2019-01-14T02:00:37.947Z,100075.68
2019-01-14T02:01:44.821Z,100079.47
2019-01-14T02:02:52.448Z,100076.86
2019-01-14T02:03:59.096Z,100086.52
2019-01-14T02:05:07.012Z,100090.05
2019-01-14T02:06:14.077Z,100085.00
2019-01-14T02:07:21.073Z,100092.63
2019-01-14T02:08:28.250Z,100101.98
2019-01-14T02:09:35.251Z,100104.54
2019-01-14T02:10:41.924Z,100110.16
2019-01-14T02:11:48.872Z,100105.55
2019-01-14T02:12:55.711Z,100121.23
2019-01-14T02:14:02.825Z,100117.92
2019-01-14T02:15:12.220Z,100116.61
2019-01-14T02:16:19.239Z,100123.31
2019-01-14T02:17:26.084Z,100121.21
2019-01-14T02:18:32.836Z,100119.50
2019-01-14T02:19:39.854Z,100119.50
2019-01-14T02:20:46.829Z,100118.71
2019-01-14T02:21:54.111Z,100127.98
2019-01-14T02:23:00.858Z,100125.45
2019-01-14T02:24:07.552Z,100123.39
2019-01-14T02:25:16.733Z,100130.04
2019-01-14T02:26:23.452Z,100129.19
2019-01-14T02:27:30.828Z,100136.49
2019-01-14T02:28:37.830Z,100139.84
2019-01-14T02:29:44.546Z,100140.81
2019-01-14T02:30:51.248Z,100140.92
2019-01-14T02:31:58.352Z,100143.83
2019-01-14T02:33:05.063Z,100146.70
2019-01-14T02:34:11.717Z,100144.58
2019-01-14T02:35:18.698Z,100150.94
2019-01-14T02:36:25.739Z,100151.67
2019-01-14T02:37:32.863Z,100155.10
2019-01-14T02:38:39.565Z,100152.60
2019-01-14T02:39:46.634Z,100153.97
2019-01-14T02:40:53.859Z,100158.63
2019-01-14T02:42:00.585Z,100164.63
2019-01-14T02:43:07.325Z,100166.05
2019-01-14T02:44:13.995Z,100166.88
2019-01-14T02:45:20.883Z,100172.87
2019-01-14T02:46:27.870Z,100178.75
2019-01-14T02:47:35.009Z,100170.73
2019-01-14T02:48:41.686Z,100175.42
2019-01-14T02:49:48.656Z,100174.49
2019-01-14T02:50:55.390Z,100174.03
2019-01-14T02:52:02.572Z,100180.86
2019-01-14T02:53:09.314Z,100177.86
2019-01-14T02:54:16.044Z,100181.72
2019-01-14T02:55:22.750Z,100184.23
2019-01-14T02:56:29.780Z,100187.27
2019-01-14T02:57:36.806Z,100191.56
2019-01-14T02:58:43.470Z,100187.38
2019-01-14T02:59:50.152Z,100184.00
2019-01-14T03:00:57.157Z,100193.77
2019-01-14T03:02:04.410Z,100182.27
2019-01-14T03:03:11.120Z,100188.23
2019-01-14T03:04:18.160Z,100192.13
2019-01-14T03:05:24.812Z,100197.17
2019-01-14T03:06:31.588Z,100195.04
2019-01-14T03:07:38.475Z,100196.28
2019-01-14T03:08:45.199Z,100199.72
2019-01-14T03:09:51.866Z,100201.36
2019-01-14T03:11:00.430Z,100199.33
2019-01-14T03:12:07.401Z,100203.58
2019-01-14T03:13:15.927Z,100209.02
2019-01-14T03:14:22.758Z,100206.56
2019-01-14T03:15:29.876Z,100211.28
2019-01-14T03:16:36.644Z,100209.10
2019-01-14T03:17:43.335Z,100219.17
2019-01-14T03:18:49.993Z,100217.86
2019-01-14T03:19:56.714Z,100219.04
2019-01-14T03:21:03.397Z,100223.78
2019-01-14T03:22:10.537Z,100221.66
2019-01-14T03:23:17.171Z,100213.14
2019-01-14T03:24:23.835Z,100215.70
2019-01-14T03:25:30.901Z,100215.77
2019-01-14T03:26:37.846Z,100218.62
2019-01-14T03:27:44.489Z,100219.04
2019-01-14T03:28:51.492Z,100223.27
2019-01-14T03:29:58.579Z,100222.05
2019-01-14T03:31:05.582Z,100224.68
2019-01-14T03:32:12.423Z,100222.59
2019-01-14T03:33:19.127Z,100225.07
2019-01-14T03:34:25.869Z,100230.69
2019-01-14T03:35:33.010Z,100235.31
2019-01-14T03:36:39.673Z,100233.97
2019-01-14T03:37:46.386Z,100238.22
2019-01-14T03:38:53.381Z,100233.59
2019-01-14T03:40:00.372Z,100233.56
2019-01-14T03:41:07.133Z,100237.84
2019-01-14T03:42:14.017Z,100232.28
2019-01-14T03:43:20.719Z,100240.41
2019-01-14T03:44:27.353Z,100234.86
2019-01-14T03:45:34.469Z,100245.81
2019-01-14T03:46:41.401Z,100243.74
2019-01-14T03:47:48.063Z,100245.06
2019-01-14T03:48:54.978Z,100243.43
2019-01-14T03:50:05.223Z,100245.59
2019-01-14T03:51:12.075Z,100240.06
2019-01-14T03:52:18.839Z,100252.67
2019-01-14T03:53:25.817Z,100248.53
2019-01-14T03:54:33.042Z,100246.87
2019-01-14T03:55:39.781Z,100246.82
2019-01-14T03:56:46.448Z,100255.77
2019-01-14T03:57:55.091Z,100257.87
2019-01-14T03:59:02.157Z,100257.41
2019-01-14T04:00:12.584Z,100252.00
2019-01-14T04:01:19.261Z,100254.96
2019-01-14T04:02:26.038Z,100265.03
2019-01-14T04:03:33.061Z,100265.86
2019-01-14T04:04:39.745Z,100268.39
2019-01-14T04:05:46.367Z,100263.67
2019-01-14T04:06:53.272Z,100263.27
2019-01-14T04:08:00.298Z,100264.91
2019-01-14T04:09:09.090Z,100267.89
2019-01-14T04:10:17.572Z,100266.23
2019-01-14T04:11:30.047Z,100267.94
2019-01-14T04:12:36.870Z,100268.83
2019-01-14T04:13:43.910Z,100268.83
2019-01-14T04:14:50.899Z,100273.55
2019-01-14T04:15:57.558Z,100274.83
2019-01-14T04:17:04.736Z,100273.85
2019-01-14T04:18:11.434Z,100278.91
2019-01-14T04:19:18.804Z,100275.56
2019-01-14T04:20:27.464Z,100274.70
2019-01-14T04:21:34.358Z,100279.31
2019-01-14T04:22:41.078Z,100277.66
2019-01-14T04:23:47.977Z,100277.66
2019-01-14T04:24:54.633Z,100275.45
2019-01-14T04:26:01.313Z,100271.64
2019-01-14T04:27:08.069Z,100269.63
2019-01-14T04:28:15.207Z,100270.91
2019-01-14T04:29:21.843Z,100275.11
2019-01-14T04:30:28.539Z,100277.58
2019-01-14T04:31:35.520Z,100276.81
2019-01-14T04:32:42.456Z,100277.27
2019-01-14T04:33:49.298Z,100277.27
2019-01-14T04:34:56.259Z,100284.79
2019-01-14T04:36:03.279Z,100286.86
2019-01-14T04:37:10.316Z,100289.95
2019-01-14T04:38:17.337Z,100289.95
2019-01-14T04:39:24.974Z,100293.77
2019-01-14T04:40:31.659Z,100298.40
2019-01-14T04:41:38.415Z,100298.47
2019-01-14T04:42:45.772Z,100296.80
2019-01-14T04:43:52.426Z,100300.27
2019-01-14T04:44:59.100Z,100300.60
2019-01-14T04:46:06.173Z,100309.05
2019-01-14T04:47:13.031Z,100304.83
2019-01-14T04:48:19.963Z,100302.70
2019-01-14T04:49:26.992Z,100305.69
2019-01-14T04:50:33.921Z,100300.62
2019-01-14T04:51:40.561Z,100299.83
2019-01-14T04:52:47.565Z,100302.37
2019-01-14T04:53:54.648Z,100303.20
2019-01-14T04:55:01.366Z,100309.55
2019-01-14T04:56:08.396Z,100316.32
2019-01-14T04:57:15.054Z,100313.83
2019-01-14T04:58:22.066Z,100316.34
2019-01-14T04:59:28.805Z,100321.80
2019-01-14T05:00:35.849Z,100322.69
2019-01-14T05:01:42.941Z,100323.18
2019-01-14T05:02:50.589Z,100325.70
2019-01-14T05:03:57.985Z,100325.31
2019-01-14T05:05:05.488Z,100335.42
2019-01-14T05:06:12.339Z,100333.76
2019-01-14T05:07:19.324Z,100332.48
2019-01-14T05:08:26.300Z,100334.16
2019-01-14T05:09:33.268Z,100340.15
2019-01-14T05:10:39.981Z,100343.57
2019-01-14T05:11:46.716Z,100343.13
2019-01-14T05:12:54.296Z,100346.05
2019-01-14T05:14:01.061Z,100350.73
2019-01-14T05:15:09.894Z,100352.46
2019-01-14T05:16:16.533Z,100353.30
2019-01-14T05:17:23.196Z,100352.06
2019-01-14T05:18:29.905Z,100352.48
2019-01-14T05:19:36.997Z,100361.77
2019-01-14T05:20:43.622Z,100363.05
2019-01-14T05:21:50.749Z,100359.66
2019-01-14T05:22:58.218Z,100366.89
2019-01-14T05:24:04.886Z,100359.27
2019-01-14T05:25:11.635Z,100359.72
2019-01-14T05:26:18.625Z,100360.56
2019-01-14T05:27:25.317Z,100361.83
2019-01-14T05:28:32.131Z,100360.57
2019-01-14T05:29:38.973Z,100366.52
2019-01-14T05:30:45.701Z,100365.27
2019-01-14T05:31:52.720Z,100365.28
2019-01-14T05:32:59.703Z,100359.80
2019-01-14T05:34:06.409Z,100368.25
2019-01-14T05:35:13.556Z,100363.47
2019-01-14T05:36:20.593Z,100366.05
2019-01-14T05:37:27.253Z,100367.38
2019-01-14T05:38:34.450Z,100366.98
2019-01-14T05:39:41.815Z,100375.44
2019-01-14T05:40:48.498Z,100373.36
2019-01-14T05:41:55.271Z,100380.14
2019-01-14T05:43:01.999Z,100380.52
2019-01-14T05:44:09.008Z,100383.45
2019-01-14T05:45:15.876Z,100385.61
2019-01-14T05:46:22.850Z,100380.96
2019-01-14T05:47:29.933Z,100385.22
2019-01-14T05:48:36.712Z,100387.77
2019-01-14T05:49:43.824Z,100391.12
2019-01-14T05:50:50.854Z,100392.02
2019-01-14T05:51:57.514Z,100397.94
2019-01-14T05:53:05.143Z,100397.56
2019-01-14T05:54:12.188Z,100395.93
2019-01-14T05:55:19.310Z,100396.31
2019-01-14T05:56:25.997Z,100401.02
2019-01-14T05:57:33.489Z,100403.19
2019-01-14T05:58:40.176Z,100404.84
2019-01-14T05:59:46.848Z,100409.92
2019-01-14T06:00:53.545Z,100406.12
2019-01-14T06:02:00.712Z,100410.30
2019-01-14T06:03:07.547Z,100420.47
2019-01-14T06:04:14.272Z,100412.91
2019-01-14T06:05:20.955Z,100420.47
2019-01-14T06:06:27.641Z,100418.83
2019-01-14T06:07:34.343Z,100416.74
2019-01-14T06:08:41.068Z,100418.89
2019-01-14T06:09:47.713Z,100415.55
2019-01-14T06:10:54.705Z,100418.09
2019-01-14T06:12:01.796Z,100419.41
2019-01-14T06:13:08.572Z,100420.72
2019-01-14T06:14:15.227Z,100422.40
2019-01-14T06:15:21.937Z,100427.05
2019-01-14T06:16:28.636Z,100425.84
2019-01-14T06:17:35.319Z,100429.14
2019-01-14T06:18:42.006Z,100431.67
2019-01-14T06:19:48.886Z,100429.98
2019-01-14T06:20:55.917Z,100434.22
2019-01-14T06:22:02.720Z,100433.41
2019-01-14T06:23:12.281Z,100432.14
2019-01-14T06:24:18.955Z,100426.15
2019-01-14T06:25:25.680Z,100437.66
2019-01-14T06:26:33.083Z,100432.58
2019-01-14T06:27:39.787Z,100441.84
2019-01-14T06:28:46.907Z,100436.23
2019-01-14T06:29:54.530Z,100438.33
2019-01-14T06:31:01.314Z,100451.02
2019-01-14T06:32:08.325Z,100451.89
2019-01-14T06:33:14.965Z,100452.73
2019-01-14T06:34:22.041Z,100461.56
2019-01-14T06:35:30.152Z,100468.78
2019-01-14T06:36:36.808Z,100468.33
2019-01-14T06:37:43.861Z,100471.17
2019-01-14T06:38:50.909Z,100469.05
2019-01-14T06:39:57.998Z,100471.98
2019-01-14T06:41:04.689Z,100474.05
2019-01-14T06:42:11.393Z,100480.82
2019-01-14T06:43:18.747Z,100489.25
2019-01-14T06:44:25.537Z,100484.62
2019-01-14T06:45:32.237Z,100488.44
2019-01-14T06:46:38.913Z,100491.80
2019-01-14T06:47:46.379Z,100484.17
2019-01-14T06:48:53.195Z,100494.31
2019-01-14T06:49:59.919Z,100495.14
2019-01-14T06:51:06.671Z,100503.21
2019-01-14T06:52:13.814Z,100507.39
2019-01-14T06:53:20.488Z,100512.88
2019-01-14T06:54:29.442Z,100519.28
2019-01-14T06:55:36.602Z,100527.30
2019-01-14T06:56:43.636Z,100514.68
2019-01-14T06:57:50.488Z,100532.90
2019-01-14T06:58:57.314Z,100531.63
2019-01-14T07:00:05.258Z,100535.48
2019-01-14T07:01:11.910Z,100532.13
2019-01-14T07:02:19.086Z,100543.12
2019-01-14T07:03:25.751Z,100552.53
2019-01-14T07:04:32.448Z,100554.26
2019-01-14T07:05:39.453Z,100552.23
2019-01-14T07:06:46.147Z,100559.45
2019-01-14T07:07:59.520Z,100559.45
2019-01-14T07:09:02.169Z,100546.38
2019-01-14T07:10:12.592Z,100549.80
2019-01-14T07:11:20.374Z,100544.67
2019-01-14T07:12:27.070Z,100556.59
2019-01-14T07:13:34.261Z,100546.00
2019-01-14T07:14:41.609Z,100550.23
2019-01-14T07:15:48.305Z,100555.33
2019-01-14T07:16:54.983Z,100554.09
2019-01-14T07:18:01.631Z,100549.03
2019-01-14T07:19:08.422Z,100555.37
2019-01-14T07:20:16.033Z,100556.25
2019-01-14T07:21:23.081Z,100557.08
2019-01-14T07:22:29.822Z,100568.50
2019-01-14T07:23:36.587Z,100568.90
2019-01-14T07:24:43.365Z,100568.06
2019-01-14T07:25:50.046Z,100571.03
2019-01-14T07:26:57.380Z,100565.95
2019-01-14T07:28:04.685Z,100572.75
2019-01-14T07:29:11.340Z,100573.19
2019-01-14T07:30:20.746Z,100571.09
2019-01-14T07:31:27.463Z,100569.41
2019-01-14T07:32:34.154Z,100571.92
2019-01-14T07:33:40.832Z,100573.19
2019-01-14T07:34:47.488Z,100580.40
2019-01-14T07:35:54.484Z,100580.41
2019-01-14T07:37:01.181Z,100577.86
2019-01-14T07:38:08.064Z,100584.24
2019-01-14T07:39:14.781Z,100581.27
2019-01-14T07:40:22.200Z,100592.69
2019-01-14T07:41:29.217Z,100597.36
2019-01-14T07:42:36.248Z,100601.13
2019-01-14T07:43:42.901Z,100607.08
2019-01-14T07:44:49.852Z,100611.72
2019-01-14T07:45:56.785Z,100599.50
2019-01-14T07:47:04.636Z,100609.64
2019-01-14T07:48:11.486Z,100619.36
2019-01-14T07:49:18.246Z,100610.88
2019-01-14T07:50:24.982Z,100588.45
2019-01-14T07:51:32.626Z,100588.92
2019-01-14T07:52:39.913Z,100588.92
2019-01-14T07:53:47.088Z,100595.66
2019-01-14T07:54:53.791Z,100592.72
2019-01-14T07:56:01.138Z,100591.42
2019-01-14T07:57:07.861Z,100602.44
2019-01-14T07:58:14.704Z,100602.84
2019-01-14T07:59:21.784Z,100601.57
2019-01-14T08:00:29.177Z,100605.41
2019-01-14T08:01:35.932Z,100601.60
2019-01-14T08:02:42.640Z,100605.00
2019-01-14T08:03:49.329Z,100610.08
2019-01-14T08:04:55.999Z,100615.58
2019-01-14T08:06:02.824Z,100613.47
2019-01-14T08:07:09.522Z,100616.00
2019-01-14T08:08:16.169Z,100615.17
2019-01-14T08:09:22.896Z,100622.34
2019-01-14T08:10:29.533Z,100629.97
2019-01-14T08:11:36.599Z,100622.80
2019-01-14T08:12:43.627Z,100632.09
2019-01-14T08:13:50.313Z,100637.18
2019-01-14T08:14:57.137Z,100645.19
2019-01-14T08:16:04.144Z,100645.20
2019-01-14T08:17:10.840Z,100656.20
2019-01-14T08:18:18.025Z,100663.78
2019-01-14T08:19:24.703Z,100671.81
2019-01-14T08:20:31.766Z,100671.81
2019-01-14T08:21:38.677Z,100671.39
2019-01-14T08:22:45.355Z,100676.03
2019-01-14T08:23:52.100Z,100678.99
2019-01-14T08:24:59.133Z,100681.52
2019-01-14T08:26:05.870Z,100679.84
2019-01-14T08:27:31.966Z,100680.27
2019-01-14T08:28:39.000Z,100688.31
2019-01-14T08:29:45.822Z,100698.46
2019-01-14T08:30:52.496Z,100704.78
2019-01-14T08:31:59.348Z,100710.28
2019-01-14T08:33:06.232Z,100712.82
2019-01-14T08:34:13.262Z,100699.70
2019-01-14T08:35:20.654Z,100706.46
2019-01-14T08:36:27.753Z,100694.21
2019-01-14T08:37:34.557Z,100695.50
2019-01-14T08:38:41.280Z,100698.44
2019-01-14T08:39:47.978Z,100691.27
2019-01-14T08:40:55.291Z,100700.14
2019-01-14T08:42:05.416Z,100697.61
2019-01-14T08:43:12.490Z,100703.52
2019-01-14T08:44:20.239Z,100695.05
2019-01-14T08:45:27.234Z,100693.38
2019-01-14T08:46:33.975Z,100697.59
2019-01-14T08:47:40.999Z,100700.98
2019-01-14T08:48:48.857Z,100700.98
2019-01-14T08:49:55.739Z,100700.55
2019-01-14T08:51:02.418Z,100703.92
2019-01-14T08:52:09.516Z,100705.18
2019-01-14T08:53:16.407Z,100704.34
2019-01-14T08:54:23.744Z,100699.69
2019-01-14T08:55:30.768Z,100704.34
2019-01-14T08:56:37.803Z,100701.37
2019-01-14T08:57:44.781Z,100705.98
2019-01-14T08:58:51.448Z,100714.02
2019-01-14T08:59:58.181Z,100711.94
2019-01-14T09:01:04.899Z,100714.89
2019-01-14T09:02:11.556Z,100711.06
2019-01-14T09:03:18.251Z,100713.16
2019-01-14T09:04:32.161Z,100710.66
2019-01-14T09:05:33.451Z,100706.02
2019-01-14T09:06:40.477Z,100709.39
2019-01-14T09:07:47.345Z,100709.83
2019-01-14T09:08:54.189Z,100708.97
2019-01-14T09:10:00.853Z,100711.06
2019-01-14T09:11:07.734Z,100711.92
2019-01-14T09:12:14.364Z,100718.69
2019-01-14T09:13:21.040Z,100722.03
2019-01-14T09:14:28.072Z,100719.52
2019-01-14T09:15:35.574Z,100715.31
2019-01-14T09:16:42.264Z,100721.21
2019-01-14T09:17:49.517Z,100719.53
2019-01-14T09:18:56.733Z,100727.16
2019-01-14T09:20:03.981Z,100723.34
2019-01-14T09:21:10.918Z,100724.19
2019-01-14T09:22:17.933Z,100722.91
2019-01-14T09:23:24.671Z,100725.49
2019-01-14T09:24:31.363Z,100722.54
2019-01-14T09:25:38.400Z,100725.05
2019-01-14T09:26:45.142Z,100728.43
2019-01-14T09:27:51.939Z,100731.84
2019-01-14T09:28:58.674Z,100732.67
2019-01-14T09:30:09.004Z,100736.47
2019-01-14T09:31:15.657Z,100733.53
2019-01-14T09:32:22.515Z,100731.84
2019-01-14T09:33:29.565Z,100739.42
2019-01-14T09:34:36.509Z,100729.29
2019-01-14T09:35:43.167Z,100736.48
2019-01-14T09:36:49.915Z,100731.84
2019-01-14T09:37:56.613Z,100733.94
2019-01-14T09:39:04.285Z,100733.54
2019-01-14T09:40:14.324Z,100735.20
2019-01-14T09:41:21.302Z,100745.36
2019-01-14T09:42:28.157Z,100741.98
2019-01-14T09:43:34.908Z,100739.45
2019-01-14T09:44:42.017Z,100746.61
2019-01-14T09:45:48.705Z,100742.82
2019-01-14T09:46:55.387Z,100742.39
2019-01-14T09:48:02.064Z,100747.45
2019-01-14T09:49:08.819Z,100754.61
2019-01-14T09:50:17.044Z,100754.19
2019-01-14T09:51:23.717Z,100756.33
2019-01-14T09:52:30.423Z,100762.23
2019-01-14T09:53:37.147Z,100758.44
2019-01-14T09:54:44.228Z,100756.30
2019-01-14T09:55:51.049Z,100753.34
2019-01-14T09:56:57.738Z,100761.36
2019-01-14T09:58:04.527Z,100765.57
2019-01-14T09:59:11.257Z,100759.20
2019-01-14T10:00:18.028Z,100766.38
2019-01-14T10:01:25.052Z,100766.81
2019-01-14T10:02:31.856Z,100776.11
2019-01-14T10:03:38.602Z,100765.95
2019-01-14T10:04:45.348Z,100768.48
2019-01-14T10:05:52.051Z,100769.36
2019-01-14T10:06:59.107Z,100760.88
2019-01-14T10:08:06.151Z,100771.90
2019-01-14T10:09:12.851Z,100756.22
2019-01-14T10:10:21.144Z,100768.92
2019-01-14T10:11:27.909Z,100770.22
2019-01-14T10:12:34.763Z,100773.19
2019-01-14T10:13:41.558Z,100769.81
2019-01-14T10:14:50.590Z,100774.05
2019-01-14T10:15:57.293Z,100774.05
2019-01-14T10:17:04.057Z,100782.11
2019-01-14T10:18:11.149Z,100771.92
2019-01-14T10:19:18.231Z,100786.32
2019-01-14T10:20:24.861Z,100780.84
2019-01-14T10:21:32.385Z,100789.71
2019-01-14T10:22:39.052Z,100796.47
2019-01-14T10:23:46.307Z,100793.95
2019-01-14T10:24:53.027Z,100792.69
2019-01-14T10:26:01.706Z,100801.16
2019-01-14T10:27:08.646Z,100797.78
2019-01-14T10:28:15.354Z,100797.76
2019-01-14T10:29:22.307Z,100802.02
2019-01-14T10:30:29.027Z,100802.86
2019-01-14T10:31:36.048Z,100808.75
2019-01-14T10:32:42.947Z,100804.08
2019-01-14T10:33:49.625Z,100807.89
2019-01-14T10:34:56.581Z,100813.82
2019-01-14T10:36:03.331Z,100799.86
2019-01-14T10:37:10.027Z,100805.77
2019-01-14T10:38:17.046Z,100810.02
2019-01-14T10:39:25.669Z,100807.04
2019-01-14T10:40:32.392Z,100804.09
2019-01-14T10:41:39.141Z,100810.44
2019-01-14T10:42:46.035Z,100807.08
2019-01-14T10:43:52.736Z,100804.53
2019-01-14T10:44:59.528Z,100814.69
2019-01-14T10:46:06.283Z,100806.21
2019-01-14T10:47:14.601Z,100806.20
2019-01-14T10:48:21.704Z,100807.92
2019-01-14T10:49:28.459Z,100815.11
2019-01-14T10:50:35.324Z,100813.41
2019-01-14T10:51:42.868Z,100815.93
2019-01-14T10:52:49.604Z,100826.06
2019-01-14T10:53:56.424Z,100815.52
2019-01-14T10:55:03.524Z,100821.88
2019-01-14T10:56:10.267Z,100830.74
2019-01-14T10:57:17.358Z,100827.81
2019-01-14T10:58:24.068Z,100824.40
2019-01-14T10:59:31.173Z,100830.75
2019-01-14T11:00:38.432Z,100820.59
2019-01-14T11:01:45.128Z,100819.73
2019-01-14T11:02:52.066Z,100812.55
2019-01-14T11:03:58.788Z,100815.93
2019-01-14T11:05:07.672Z,100816.34
2019-01-14T11:06:14.318Z,100825.23
2019-01-14T11:07:25.339Z,100816.75
2019-01-14T11:08:32.054Z,100823.08
2019-01-14T11:09:38.834Z,100823.48
2019-01-14T11:10:45.521Z,100825.99
2019-01-14T11:11:52.852Z,100819.64
2019-01-14T11:12:59.494Z,100821.31
2019-01-14T11:14:08.008Z,100817.94
2019-01-14T11:15:16.190Z,100810.74
2019-01-14T11:16:22.954Z,100810.30
2019-01-14T11:17:29.693Z,100817.45
2019-01-14T11:18:36.754Z,100817.06
2019-01-14T11:19:43.432Z,100816.62
2019-01-14T11:20:50.088Z,100825.52
2019-01-14T11:21:56.787Z,100814.08
2019-01-14T11:23:04.671Z,100830.59
2019-01-14T11:24:13.132Z,100818.72
2019-01-14T11:25:20.635Z,100816.18
2019-01-14T11:26:27.669Z,100821.66
2019-01-14T11:27:34.319Z,100814.02
2019-01-14T11:28:41.347Z,100813.59
2019-01-14T11:29:54.926Z,100822.10
2019-01-14T11:31:03.387Z,100819.12
2019-01-14T11:32:10.498Z,100818.64
2019-01-14T11:33:17.228Z,100820.78
2019-01-14T11:34:23.896Z,100816.08
2019-01-14T11:35:30.723Z,100819.84
2019-01-14T11:36:37.504Z,100828.31
2019-01-14T11:37:44.187Z,100827.91
2019-01-14T11:38:54.571Z,100820.67
2019-01-14T11:40:01.643Z,100833.83
2019-01-14T11:41:08.733Z,100834.17
2019-01-14T11:42:15.792Z,100833.34
2019-01-14T11:43:22.567Z,100835.00
2019-01-14T11:44:29.217Z,100834.94
2019-01-14T11:45:36.048Z,100840.02
2019-01-14T11:46:42.716Z,100835.75
2019-01-14T11:47:49.754Z,100834.03
2019-01-14T11:48:56.422Z,100838.25
2019-01-14T11:50:03.293Z,100840.77
2019-01-14T11:51:10.280Z,100842.04
2019-01-14T11:52:17.022Z,100842.48
2019-01-14T11:53:23.714Z,100840.72
2019-01-14T11:54:31.138Z,100851.27
2019-01-14T11:55:38.244Z,100850.31
2019-01-14T11:56:45.452Z,100859.14
2019-01-14T11:57:52.579Z,100845.56
2019-01-14T11:58:59.249Z,100852.02
2019-01-14T12:00:12.463Z,100858.02
2019-01-14T12:01:19.522Z,100880.16
2019-01-14T12:02:26.494Z,100864.50
2019-01-14T12:03:33.187Z,100876.78
2019-01-14T12:04:40.205Z,100881.88
2019-01-14T12:05:47.448Z,100881.07
2019-01-14T12:06:54.184Z,100883.23
2019-01-14T12:08:00.876Z,100900.27
2019-01-14T12:09:12.303Z,100895.22
2019-01-14T12:10:19.715Z,100905.09
2019-01-14T12:11:26.555Z,100899.23
2019-01-14T12:12:33.268Z,100894.61
2019-01-14T12:13:40.249Z,100891.22
2019-01-14T12:14:47.281Z,100884.88
2019-01-14T12:15:53.946Z,100882.80
2019-01-14T12:17:00.701Z,100882.79
2019-01-14T12:18:08.090Z,100872.22
2019-01-14T12:19:15.110Z,100869.23
2019-01-14T12:20:21.990Z,100870.53
2019-01-14T12:21:28.964Z,100866.73
2019-01-14T12:22:35.712Z,100868.00
2019-01-14T12:23:42.745Z,100863.33
2019-01-14T12:24:49.456Z,100862.09
2019-01-14T12:25:56.134Z,100868.84
2019-01-14T12:27:02.798Z,100868.44
2019-01-14T12:28:09.895Z,100870.95
2019-01-14T12:29:16.659Z,100871.80
2019-01-14T12:30:34.352Z,100872.23
2019-01-14T12:31:41.082Z,100880.69
2019-01-14T12:32:48.144Z,100881.53
2019-01-14T12:33:54.965Z,100878.16
2019-01-14T12:35:02.040Z,100884.08
2019-01-14T12:36:08.773Z,100886.61
2019-01-14T12:37:15.868Z,100888.73
2019-01-14T12:38:22.532Z,100888.30
2019-01-14T12:39:29.600Z,100883.64
2019-01-14T12:40:37.665Z,100885.77
2019-01-14T12:41:50.958Z,100885.36
2019-01-14T12:42:53.263Z,100887.46
2019-01-14T12:44:00.492Z,100878.99
2019-01-14T12:45:09.638Z,100887.44
2019-01-14T12:46:16.359Z,100881.50
2019-01-14T12:47:23.471Z,100884.48
2019-01-14T12:48:30.555Z,100887.84